Time;durP1;ratioP1;P1;durP2;ratioP2;P2;SDS_P1;SDS_P2;PMS_P1;PMS_P2;Temp;Humidity;BMP_temperature;BMP_pressure;BME280_temperature;BME280_humidity;BME280_pressure;Samples;Min_cycle;Max_cycle;Signal;HPM_P1;HPM_P2
2022/01/01 00:00:12;;;;;;;22.00;15.03;;;13.00;90.80;;;13.57;59.37;99687.81;4952253;28;123877;-89
2022/01/01 00:02:39;;;;;;;24.37;13.90;;;13.00;90.80;;;13.55;59.18;99699.22;4943228;28;115172;-87
2022/01/01 00:05:11;;;;;;;19.77;13.10;;;13.00;90.70;;;13.52;59.24;99691.50;4952910;28;114117;-88
2022/01/01 00:11:19;;;;;;;19.43;12.20;;;13.00;90.70;;;13.38;59.43;99696.22;4952375;28;123533;-89
2022/01/01 00:13:45;;;;;;;17.07;11.37;;;12.90;90.60;;;13.38;59.44;99697.06;4945918;28;114749;-89
2022/01/01 00:16:12;;;;;;;18.20;13.73;;;12.90;90.70;;;13.41;59.61;99695.63;4951482;28;113568;-87
2022/01/01 00:18:39;;;;;;;19.40;12.77;;;12.90;90.70;;;13.43;59.55;99699.75;4949968;28;123801;-88
2022/01/01 00:21:08;;;;;;;17.97;12.73;;;12.90;90.70;;;13.45;59.33;99708.56;4959097;28;123077;-89
2022/01/01 00:23:37;;;;;;;18.40;13.33;;;12.90;90.70;;;13.48;59.46;99701.56;4970368;28;114935;-87
2022/01/01 00:26:04;;;;;;;16.87;11.37;;;12.90;90.80;;;13.50;59.58;99702.09;4983286;28;113873;-88
2022/01/01 00:28:33;;;;;;;17.37;11.30;;;12.90;90.80;;;13.53;59.69;99704.25;4952591;28;124067;-88
2022/01/01 00:31:18;;;;;;;15.93;12.67;;;13.00;90.90;;;13.55;59.67;99706.72;4951481;28;123821;-88
2022/01/01 00:34:23;;;;;;;23.33;13.47;;;13.00;90.90;;;13.53;59.58;99700.66;4937734;28;113769;-88
2022/01/01 00:36:52;;;;;;;21.70;14.23;;;13.00;90.90;;;13.53;59.62;99707.03;4939529;28;113851;-87
2022/01/01 00:39:20;;;;;;;18.27;12.93;;;13.00;90.90;;;13.56;59.68;99719.47;4952255;28;123301;-89
2022/01/01 00:41:47;;;;;;;19.17;13.47;;;13.00;90.90;;;13.56;59.65;99716.69;4950065;28;122908;-88
2022/01/01 00:44:15;;;;;;;25.07;13.10;;;13.00;90.90;;;13.58;59.66;99711.66;4941723;28;114438;-88
2022/01/01 00:47:02;;;;;;;22.67;14.10;;;13.00;90.90;;;13.60;59.66;99709.41;4950143;28;112975;-87
2022/01/01 00:49:47;;;;;;;22.10;14.50;;;13.00;90.90;;;13.62;59.55;99710.72;4947092;28;123428;-87
2022/01/01 00:52:14;;;;;;;21.23;14.60;;;13.00;90.90;;;13.63;59.62;99712.38;4948805;28;123765;-88
2022/01/01 00:54:41;;;;;;;20.20;13.97;;;13.00;91.00;;;13.67;59.55;99715.34;4947411;28;114805;-89
2022/01/01 01:00:49;;;;;;;22.00;13.23;;;13.10;91.10;;;13.70;59.60;99714.72;4949247;28;124646;-88
2022/01/01 01:03:18;;;;;;;18.53;12.67;;;13.10;91.00;;;13.70;59.53;99718.34;4948505;28;123362;-89
2022/01/01 01:05:47;;;;;;;18.40;13.13;;;13.10;91.00;;;13.73;59.51;99725.22;4944707;28;114119;-88
2022/01/01 01:08:53;;;;;;;20.00;12.57;;;13.10;91.00;;;13.72;59.39;99718.00;4953410;28;114134;-87
2022/01/01 01:11:57;;;;;;;13.43;9.50;;;13.10;90.90;;;13.70;59.25;99721.13;4950674;28;123804;-88
2022/01/01 01:14:44;;;;;;;13.47;9.57;;;13.10;90.80;;;13.69;59.18;99716.66;4945779;28;123934;-88
2022/01/01 01:17:13;;;;;;;12.00;9.03;;;13.10;90.80;;;13.67;59.27;99718.13;4949100;28;114250;-88
2022/01/01 01:19:40;;;;;;;13.20;9.70;;;13.20;90.80;;;13.66;59.13;99710.94;4949630;28;113982;-88
2022/01/01 01:22:44;;;;;;;12.70;8.33;;;13.10;90.70;;;13.67;59.20;99720.88;4952395;28;122903;-87
2022/01/01 01:25:14;;;;;;;12.17;8.87;;;13.10;90.70;;;13.67;59.34;99721.75;4952692;28;124202;-88
2022/01/01 01:28:40;;;;;;;14.83;9.30;;;13.10;90.70;;;13.68;59.18;99728.94;4950452;28;113296;-87
2022/01/01 01:31:07;;;;;;;12.00;8.10;;;13.10;90.60;;;13.68;59.12;99728.94;4950871;28;114089;-88
2022/01/01 01:34:12;;;;;;;10.40;8.17;;;13.10;90.70;;;13.69;59.26;99730.56;4949764;28;123897;-87
2022/01/01 01:37:16;;;;;;;13.73;8.20;;;13.10;90.60;;;13.70;59.04;99732.22;4949753;28;123833;-88
2022/01/01 01:40:10;;;;;;;11.43;8.07;;;13.10;90.60;;;13.70;59.04;99736.94;4952852;28;114274;-89
2022/01/01 01:42:58;;;;;;;13.83;8.57;;;13.10;90.60;;;13.70;58.98;99728.59;4952439;28;113988;-88
2022/01/01 01:45:44;;;;;;;13.40;8.87;;;13.10;90.50;;;13.69;59.10;99736.09;4951592;28;123904;-88
2022/01/01 01:48:10;;;;;;;15.30;9.50;;;13.10;90.50;;;13.69;59.44;99741.66;4950320;28;122830;-87
2022/01/01 01:51:34;;;;;;;13.20;9.17;;;13.10;90.70;;;13.71;59.21;99738.59;4950333;28;114928;-88
2022/01/01 01:54:59;;;;;;;14.60;9.70;;;13.20;90.80;;;13.69;59.53;99733.34;4943542;28;115293;-89
2022/01/01 01:57:26;;;;;;;14.80;9.80;;;13.10;90.70;;;13.72;59.61;99731.06;4943087;28;123211;-88
2022/01/01 01:59:53;;;;;;;12.40;8.80;;;13.10;90.90;;;13.78;59.61;99735.38;4948464;28;124331;-89
2022/01/01 02:03:18;;;;;;;14.17;9.53;;;13.20;90.90;;;13.82;59.81;99731.69;4956590;28;114716;-86
2022/01/01 02:05:47;;;;;;;12.70;8.70;;;13.20;91.00;;;13.88;59.72;99729.59;4941490;28;114398;-89
2022/01/01 02:08:52;;;;;;;14.47;10.00;;;13.30;91.00;;;13.90;59.69;99741.25;4977606;28;124049;-88
2022/01/01 02:11:39;;;;;;;14.40;10.13;;;13.30;91.00;;;13.91;59.58;99742.88;4970666;28;123254;-87
2022/01/01 02:17:47;;;;;;;15.23;10.97;;;13.40;90.90;;;13.86;59.46;99745.75;4948616;28;114435;-88
2022/01/01 02:20:51;;;;;;;17.40;10.93;;;13.30;90.70;;;13.84;59.45;99742.50;4952592;28;123439;-88
2022/01/01 02:23:41;;;;;;;14.70;9.90;;;13.30;90.70;;;13.87;59.29;99752.97;4949619;28;123840;-86
2022/01/01 02:26:13;;;;;;;14.60;9.60;;;13.30;90.70;;;13.89;59.23;99756.28;4953895;28;114387;-88
2022/01/01 02:29:02;;;;;;;14.80;9.83;;;13.30;90.70;;;13.90;59.24;99747.63;4982526;28;114023;-88
2022/01/01 02:31:50;;;;;;;14.93;10.20;;;13.30;90.60;;;13.90;59.00;99741.25;4947033;28;123336;-88
2022/01/01 02:34:35;;;;;;;16.23;10.23;;;13.40;90.60;;;13.89;59.14;99740.41;4933731;28;124011;-86
2022/01/01 02:37:04;;;;;;;14.07;9.80;;;13.40;90.60;;;13.89;59.13;99747.94;4954063;28;113998;-87
2022/01/01 02:39:30;;;;;;;14.93;9.87;;;13.40;90.60;;;13.89;59.08;99739.59;4956717;28;113374;-88
2022/01/01 02:41:58;;;;;;;13.37;9.60;;;13.30;90.50;;;13.88;59.05;99743.50;4985926;28;123927;-88
2022/01/01 02:44:26;;;;;;;12.47;9.03;;;13.40;90.50;;;13.85;59.09;99756.06;4957861;28;123138;-89
2022/01/01 02:46:54;;;;;;;14.50;10.30;;;13.30;90.50;;;13.86;59.00;99734.66;4944311;28;115196;-88
2022/01/01 02:49:40;;;;;;;13.27;9.83;;;13.30;90.40;;;13.86;58.99;99741.03;4970613;28;114397;-89
2022/01/01 02:52:07;;;;;;;14.47;11.03;;;13.30;90.40;;;13.86;59.01;99745.75;4952571;28;123987;-88
2022/01/01 02:54:33;;;;;;;14.40;9.70;;;13.30;90.50;;;13.86;58.99;99737.44;4953729;28;123763;-89
2022/01/01 02:57:00;;;;;;;14.97;10.13;;;13.30;90.50;;;13.87;58.86;99741.88;4953100;28;114127;-88
2022/01/01 02:59:26;;;;;;;17.70;10.77;;;13.30;90.50;;;13.87;58.90;99741.88;4964063;28;114159;-87
2022/01/01 03:01:53;;;;;;;16.20;10.20;;;13.30;90.50;;;13.85;59.01;99725.50;4952748;28;123292;-89
2022/01/01 03:04:20;;;;;;;15.83;9.87;;;13.30;90.50;;;13.85;58.94;99730.22;4952704;28;123656;-88
2022/01/01 03:06:53;;;;;;;14.57;9.37;;;13.30;90.50;;;13.85;59.02;99738.56;4956940;28;114337;-89
2022/01/01 03:09:59;;;;;;;13.53;9.10;;;13.30;90.50;;;13.82;59.06;99728.09;4954611;28;113972;-88
2022/01/01 03:12:25;;;;;;;15.20;9.50;;;13.30;90.50;;;13.81;59.11;99726.41;4959000;28;123283;-88
2022/01/01 03:14:54;;;;;;;13.57;8.87;;;13.40;90.60;;;13.81;59.41;99732.81;4954316;28;121693;-88
2022/01/01 03:17:41;;;;;;;14.27;9.47;;;13.30;90.70;;;13.81;59.02;99731.97;4958490;28;113701;-88
2022/01/01 03:20:09;;;;;;;13.73;8.93;;;13.30;90.60;;;13.80;59.10;99731.16;4952483;28;114203;-87
2022/01/01 03:22:36;;;;;;;15.77;9.97;;;13.30;90.60;;;13.80;59.09;99730.34;4952731;28;124135;-88
2022/01/01 03:25:04;;;;;;;10.00;7.07;;;13.20;90.60;;;13.80;59.04;99731.16;4946322;28;123684;-87
2022/01/01 03:34:55;;;;;;;12.00;7.80;;;13.20;90.60;;;13.72;59.22;99722.75;4955122;28;123847;-88
2022/01/01 03:37:41;;;;;;;14.67;7.97;;;13.20;90.60;;;13.71;59.09;99721.94;4958538;28;123769;-88
2022/01/01 03:40:47;;;;;;;11.83;7.60;;;13.20;90.50;;;13.67;59.00;99721.75;4940989;28;115131;-89
2022/01/01 03:43:34;;;;;;;10.10;7.40;;;13.20;90.50;;;13.66;59.07;99724.81;4951929;28;115703;-87
2022/01/01 03:46:02;;;;;;;10.17;7.63;;;13.10;90.50;;;13.65;59.17;99717.63;4950997;28;123714;-87
2022/01/01 03:52:10;;;;;;;10.40;7.10;;;13.10;90.40;;;13.63;59.13;99726.25;4948232;28;114721;-87
2022/01/01 03:58:18;;;;;;;12.23;8.03;;;13.10;90.50;;;13.60;59.25;99735.22;4955871;28;124330;-88
2022/01/01 04:01:05;;;;;;;10.80;7.40;;;13.10;90.50;;;13.60;59.17;99732.44;4955734;28;123869;-89
2022/01/01 04:03:38;;;;;;;10.60;7.30;;;13.10;90.50;;;13.61;58.96;99736.84;4952340;28;113584;-88
2022/01/01 04:06:06;;;;;;;12.33;7.87;;;13.20;90.50;;;13.58;59.22;99734.69;4951767;28;113238;-88
2022/01/01 04:08:34;;;;;;;9.77;6.50;;;13.10;90.50;;;13.60;59.16;99728.84;4942455;28;124158;-89
2022/01/01 04:15:42;;;;;;;8.70;6.67;;;13.10;90.50;;;13.57;59.27;99733.06;4943152;28;114946;-88
2022/01/01 04:21:50;;;;;;;10.60;6.90;;;13.00;90.50;;;13.55;59.33;99734.50;4963256;28;125105;-88
2022/01/01 04:24:40;;;;;;;11.97;7.00;;;13.00;90.60;;;13.56;59.42;99728.63;4954528;28;123654;-88
2022/01/01 04:27:08;;;;;;;13.27;7.00;;;13.00;90.60;;;13.57;59.46;99723.91;4952603;28;114112;-88
2022/01/01 04:33:22;;;;;;;17.00;10.43;;;13.10;90.60;;;13.53;59.32;99725.66;4955029;28;124607;-88
2022/01/01 04:36:10;;;;;;;18.60;11.63;;;13.10;90.70;;;13.50;59.44;99729.03;4955193;28;123617;-88
2022/01/01 04:38:39;;;;;;;19.33;12.17;;;13.00;90.60;;;13.48;59.57;99721.00;4944488;28;116046;-89
2022/01/01 04:41:42;;;;;;;18.17;12.03;;;13.00;90.60;;;13.46;59.59;99720.53;4952050;28;115193;-88
2022/01/01 04:47:50;;;;;;;20.20;14.00;;;12.90;90.70;;;13.42;59.83;99713.94;4954436;28;124263;-89
2022/01/01 04:50:56;;;;;;;21.90;15.00;;;12.90;90.70;;;13.37;59.74;99695.41;4954386;28;114545;-87
2022/01/01 04:54:02;;;;;;;20.30;13.00;;;12.90;90.70;;;13.35;59.80;99681.03;4940265;28;114266;-88
2022/01/01 04:56:33;;;;;;;20.07;13.93;;;12.90;90.80;;;13.33;60.04;99691.63;4952963;28;123403;-90
2022/01/01 05:02:41;;;;;;;18.93;12.33;;;12.90;90.90;;;13.33;60.16;99693.59;4950866;28;114800;-88
2022/01/01 05:05:08;;;;;;;18.27;12.87;;;12.80;90.90;;;13.33;60.23;99690.81;4953522;28;114113;-88
2022/01/01 05:08:30;;;;;;;22.30;14.57;;;12.80;90.90;;;13.32;60.17;99700.25;4952126;28;124229;-87
2022/01/01 05:10:58;;;;;;;24.20;15.30;;;12.80;90.90;;;13.30;60.37;99699.72;4953997;28;122712;-88
2022/01/01 05:13:43;;;;;;;24.63;15.40;;;12.80;90.90;;;13.29;60.19;99695.31;4957740;28;114435;-88
2022/01/01 05:16:15;;;;;;;25.83;14.97;;;12.80;90.90;;;13.26;60.21;99689.25;4971221;28;112518;-88
2022/01/01 05:18:42;;;;;;;24.60;14.60;;;12.80;91.00;;;13.24;60.44;99691.50;4939921;28;124312;-88
2022/01/01 05:21:46;;;;;;;21.47;13.80;;;12.70;90.90;;;13.22;60.31;99692.94;4949156;28;123928;-89
2022/01/01 05:24:56;;;;;;;20.77;13.13;;;12.80;91.00;;;13.17;60.39;99702.19;4948789;28;114455;-88
2022/01/01 05:28:02;;;;;;;16.27;10.90;;;12.70;90.90;;;13.16;60.30;99710.78;4942612;28;114085;-89
2022/01/01 05:30:28;;;;;;;14.43;9.87;;;12.70;90.90;;;13.13;60.43;99703.91;4940304;28;124118;-88
2022/01/01 05:33:18;;;;;;;13.10;9.03;;;12.60;90.90;;;13.10;60.22;99701.75;4949893;28;123799;-87
2022/01/01 05:35:45;;;;;;;11.43;7.20;;;12.70;90.80;;;13.09;60.12;99700.13;4956251;28;115442;-87
2022/01/01 05:38:12;;;;;;;9.23;6.50;;;12.60;90.80;;;13.08;60.17;99704.00;4949354;28;115258;-88
2022/01/01 05:40:38;;;;;;;6.97;5.20;;;12.60;90.70;;;13.09;59.76;99707.63;4951985;28;123282;-87
2022/01/01 05:43:12;;;;;;;6.90;4.93;;;12.60;90.70;;;13.11;59.68;99708.13;4952935;28;123964;-87
2022/01/01 05:45:43;;;;;;;6.23;4.27;;;12.60;90.60;;;13.10;59.36;99717.59;4950078;28;114665;-88
2022/01/01 05:48:10;;;;;;;6.33;3.97;;;12.60;90.50;;;13.08;58.89;99715.09;4949096;28;114670;-89
2022/01/01 05:50:37;;;;;;;5.30;3.20;;;12.70;90.40;;;13.04;58.70;99709.34;4946223;28;124131;-88
2022/01/01 05:53:03;;;;;;;4.13;3.30;;;12.60;90.20;;;13.02;58.35;99717.16;4942776;28;123814;-88
2022/01/01 05:55:50;;;;;;;5.40;3.67;;;12.50;90.00;;;13.02;58.16;99719.09;4941545;28;114273;-88
2022/01/01 05:58:17;;;;;;;3.57;3.00;;;12.50;89.90;;;13.00;58.26;99727.75;4963677;28;114138;-88
2022/01/01 06:01:24;;;;;;;5.07;3.50;;;12.50;89.70;;;13.00;57.86;99726.91;4945031;28;123155;-87
2022/01/01 06:03:52;;;;;;;3.93;3.07;;;12.50;89.60;;;12.98;58.02;99743.06;4931620;28;123748;-87
2022/01/01 06:06:38;;;;;;;5.70;3.80;;;12.50;89.50;;;13.00;57.88;99735.22;4930871;28;113510;-88
2022/01/01 06:09:05;;;;;;;4.47;3.03;;;12.50;89.40;;;12.97;57.85;99747.75;4930798;28;113933;-88
2022/01/01 06:12:09;;;;;;;5.73;3.80;;;12.50;89.30;;;12.97;57.74;99749.72;4929154;28;124713;-87
2022/01/01 06:15:14;;;;;;;5.00;3.53;;;12.50;89.20;;;12.97;57.80;99750.53;4908503;28;123712;-88
2022/01/01 06:18:18;;;;;;;5.33;4.07;;;12.50;89.20;;;12.97;57.83;99752.50;4910277;28;113277;-88
2022/01/01 06:24:45;;;;;;;8.33;5.50;;;12.40;89.10;;;12.89;58.10;99767.06;4915205;28;124324;-88
2022/01/01 06:27:15;;;;;;;9.30;6.83;;;12.40;89.20;;;12.86;58.13;99764.91;4910522;28;123545;-87
2022/01/01 06:30:19;;;;;;;11.07;7.13;;;12.40;89.50;;;12.83;58.52;99764.38;4914904;28;114868;-87
2022/01/01 06:36:46;;;;;;;11.50;6.80;;;12.30;89.70;;;12.81;58.92;99771.34;4912504;28;124585;-88
2022/01/01 06:39:13;;;;;;;10.80;7.33;;;12.30;89.90;;;12.81;58.62;99772.19;4912090;28;123144;-88
2022/01/01 06:42:03;;;;;;;8.47;6.17;;;12.30;90.00;;;12.85;58.84;99782.69;4908103;28;113518;-87
2022/01/01 06:44:35;;;;;;;8.40;5.90;;;12.30;90.00;;;12.87;59.15;99772.06;4911226;28;112456;-87
2022/01/01 06:47:01;;;;;;;10.87;6.37;;;12.30;90.00;;;12.89;58.88;99772.59;4907737;28;124433;-88
2022/01/01 06:53:11;;;;;;;7.33;5.27;;;12.40;90.10;;;12.87;58.56;99769.31;4910282;28;114311;-87
2022/01/01 06:59:19;;;;;;;4.43;3.90;;;12.40;90.00;;;12.87;58.67;99769.31;4928937;28;124521;-87
2022/01/01 07:01:47;;;;;;;4.33;3.23;;;12.40;89.90;;;12.88;58.43;99773.75;4917428;28;123046;-89
2022/01/01 07:04:16;;;;;;;5.23;3.70;;;12.30;89.60;;;12.88;58.00;99766.25;4913332;28;114256;-87
2022/01/01 07:06:44;;;;;;;5.10;3.40;;;12.30;89.50;;;12.88;57.93;99768.19;4905767;28;113894;-87
2022/01/01 07:09:12;;;;;;;4.80;3.50;;;12.30;89.40;;;12.90;57.96;99765.94;4915104;28;124861;-86
2022/01/01 07:12:00;;;;;;;6.63;3.30;;;12.30;89.30;;;12.91;57.72;99760.09;4911887;28;124108;-88
2022/01/01 07:14:28;;;;;;;4.50;3.20;;;12.40;89.20;;;12.91;57.80;99768.41;4947315;28;114385;-88
2022/01/01 07:16:54;;;;;;;3.27;2.70;;;12.40;89.20;;;12.94;57.72;99764.19;4942716;28;114071;-88
2022/01/01 07:19:39;;;;;;;5.13;3.57;;;12.40;89.10;;;12.95;57.57;99760.28;4950655;28;124097;-89
2022/01/01 07:22:10;;;;;;;4.70;3.40;;;12.40;89.00;;;12.94;57.41;99758.66;4943404;28;123813;-88
2022/01/01 07:24:39;;;;;;;4.63;3.27;;;12.40;88.90;;;12.94;57.45;99770.56;4947109;28;115245;-88
2022/01/01 07:28:03;;;;;;;4.07;3.07;;;12.40;88.90;;;12.94;57.53;99770.56;4949730;28;114146;-88
2022/01/01 07:30:30;;;;;;;3.33;2.90;;;12.40;88.90;;;12.94;57.42;99769.75;4948932;28;122513;-89
2022/01/01 07:32:58;;;;;;;3.10;2.53;;;12.40;88.80;;;12.96;57.48;99771.09;4955499;28;123885;-88
2022/01/01 07:36:01;;;;;;;3.80;2.80;;;12.40;88.80;;;12.97;57.50;99778.28;4957369;28;114309;-89
2022/01/01 07:38:48;;;;;;;4.67;3.03;;;12.40;88.70;;;12.98;57.26;99757.75;4976695;28;113992;-87
2022/01/01 07:41:51;;;;;;;4.63;3.33;;;12.40;88.80;;;12.99;57.56;99758.56;4948518;28;124002;-87
2022/01/01 07:44:20;;;;;;;4.00;2.53;;;12.40;88.80;;;12.99;57.71;99769.66;4946705;28;123664;-87
2022/01/01 07:46:50;;;;;;;4.10;3.10;;;12.40;88.70;;;13.00;57.44;99762.97;4953226;28;114769;-87
2022/01/01 07:49:18;;;;;;;4.23;3.17;;;12.40;88.70;;;13.01;57.31;99762.69;4956509;28;114083;-88
2022/01/01 07:52:23;;;;;;;4.80;2.70;;;12.40;88.50;;;13.03;57.16;99771.53;4949445;28;124103;-88
2022/01/01 07:54:51;;;;;;;3.43;2.93;;;12.40;88.50;;;13.04;57.20;99772.34;4939878;28;124032;-88
2022/01/01 07:57:38;;;;;;;4.80;2.90;;;12.50;88.50;;;13.05;57.04;99760.09;4981493;28;113292;-88
2022/01/01 08:00:07;;;;;;;4.07;2.73;;;12.50;88.40;;;13.06;57.11;99750.69;4951909;28;113921;-88
2022/01/01 08:06:18;;;;;;;3.70;2.73;;;12.50;88.30;;;13.07;56.93;99745.94;4954212;28;125161;-88
2022/01/01 08:09:41;;;;;;;4.37;2.80;;;12.50;88.30;;;13.08;57.10;99748.41;4953956;28;113418;-87
2022/01/01 08:12:27;;;;;;;3.13;2.60;;;12.50;88.20;;;13.09;56.92;99750.06;4962911;28;113513;-89
2022/01/01 08:14:56;;;;;;;3.57;2.97;;;12.60;88.20;;;13.10;56.91;99754.47;4939819;28;123625;-87
2022/01/01 08:18:02;;;;;;;3.73;2.70;;;12.60;88.20;;;13.12;56.81;99755.00;4951082;28;124155;-88
2022/01/01 08:21:06;;;;;;;5.30;3.40;;;12.60;88.00;;;13.13;56.87;99744.72;4945269;28;114504;-88
2022/01/01 08:23:32;;;;;;;4.00;3.00;;;12.60;88.00;;;13.13;56.93;99739.97;4942757;28;114889;-88
2022/01/01 08:26:00;;;;;;;4.43;2.97;;;12.70;88.10;;;13.16;56.96;99739.34;4950866;28;124477;-88
2022/01/01 08:28:46;;;;;;;5.30;3.33;;;12.60;88.20;;;13.23;57.00;99745.34;4950721;28;124231;-88
2022/01/01 08:31:13;;;;;;;4.73;3.80;;;12.60;88.40;;;13.28;56.95;99747.22;4952288;28;114469;-88
2022/01/01 08:33:42;;;;;;;3.80;3.07;;;12.70;88.50;;;13.31;56.60;99746.63;4953631;28;113842;-87
2022/01/01 08:36:11;;;;;;;4.37;3.17;;;12.70;88.10;;;13.33;56.48;99746.31;4955794;28;123951;-87
2022/01/01 08:38:38;;;;;;;2.73;2.30;;;12.70;87.80;;;13.34;56.16;99759.88;4951726;28;123344;-89
2022/01/01 08:41:04;;;;;;;4.50;2.90;;;12.70;87.60;;;13.37;55.95;99755.66;4952746;28;114144;-89
2022/01/01 08:43:31;;;;;;;3.80;2.73;;;12.70;87.30;;;13.38;56.06;99762.84;4951080;28;113170;-89
2022/01/01 08:45:58;;;;;;;3.83;2.80;;;12.80;87.30;;;13.40;55.75;99768.91;4950441;28;123114;-88
2022/01/01 08:48:45;;;;;;;4.60;3.27;;;12.80;87.10;;;13.43;55.36;99771.06;4954849;28;123918;-89
2022/01/01 08:51:22;;;;;;;2.90;2.60;;;12.80;86.80;;;13.44;55.34;99769.97;4950472;28;114302;-87
2022/01/01 08:54:28;;;;;;;6.27;4.43;;;12.80;86.70;;;13.44;55.62;99772.75;4953112;28;113058;-87
2022/01/01 08:56:57;;;;;;;15.80;9.60;;;12.90;86.70;;;13.50;55.88;99767.91;4940947;28;123526;-88
2022/01/01 08:59:23;;;;;;;14.97;10.73;;;12.90;87.20;;;13.56;56.01;99775.00;4950907;28;123643;-89
2022/01/01 09:01:50;;;;;;;9.57;7.30;;;12.90;87.40;;;13.60;55.98;99776.03;4960755;28;114428;-89
2022/01/01 09:04:35;;;;;;;11.97;6.60;;;12.90;87.40;;;13.65;55.82;99776.75;4956644;28;113796;-88
2022/01/01 09:07:02;;;;;;;7.93;5.33;;;13.00;87.50;;;13.66;55.73;99780.34;4954220;28;124150;-87
2022/01/01 09:09:28;;;;;;;7.13;4.60;;;13.00;87.30;;;13.70;55.77;99782.22;4951623;28;123832;-88
2022/01/01 09:12:13;;;;;;;5.83;3.80;;;13.00;87.30;;;13.74;55.32;99782.41;4954472;28;113628;-88
2022/01/01 09:14:40;;;;;;;4.83;3.40;;;12.40;86.00;;;13.72;55.01;99781.88;4944868;28;114746;-88
2022/01/01 09:17:27;;;;;;;2.90;2.57;;;13.10;86.50;;;13.69;54.70;99783.31;4955331;28;123972;-88
2022/01/01 09:19:53;;;;;;;4.53;3.00;;;13.10;86.00;;;13.69;54.66;99783.31;4953348;28;124269;-88
2022/01/01 09:22:22;;;;;;;3.20;2.60;;;13.10;86.00;;;13.70;54.59;99792.47;4952140;28;113501;-88
2022/01/01 09:24:49;;;;;;;3.30;2.73;;;13.10;85.90;;;13.72;54.41;99789.41;4952884;28;112268;-88
2022/01/01 09:27:17;;;;;;;4.47;2.87;;;13.10;85.70;;;13.74;54.43;99779.63;4947740;28;124142;-87
2022/01/01 09:30:04;;;;;;;3.97;2.93;;;13.10;85.60;;;13.77;54.53;99787.34;4948417;28;123189;-88
2022/01/01 09:32:33;;;;;;;3.67;3.03;;;13.20;85.60;;;13.79;54.61;99787.84;4981773;28;114343;-88
2022/01/01 09:35:02;;;;;;;4.80;3.30;;;13.20;85.80;;;13.83;54.46;99801.94;4945407;28;114028;-87
2022/01/01 09:37:32;;;;;;;7.53;3.70;;;13.20;85.80;;;13.87;54.68;99800.19;4948753;28;122790;-88
2022/01/01 09:40:00;;;;;;;3.80;2.83;;;13.20;85.90;;;13.91;54.87;99804.81;4948791;28;123829;-89
2022/01/01 09:42:26;;;;;;;5.27;3.23;;;13.20;86.10;;;13.96;54.60;99803.88;4936845;28;114323;-89
2022/01/01 09:44:58;;;;;;;4.33;3.10;;;13.30;86.10;;;14.02;54.68;99799.84;4938052;28;114018;-87
2022/01/01 09:47:26;;;;;;;2.93;2.40;;;13.30;86.20;;;14.08;54.46;99804.19;4946011;28;124832;-88
2022/01/01 09:49:53;;;;;;;5.03;2.50;;;13.40;86.10;;;14.14;54.37;99802.94;4947074;28;123756;-87
2022/01/01 09:52:20;;;;;;;4.83;2.77;;;13.40;85.80;;;14.18;54.08;99797.56;4948519;28;114181;-89
2022/01/01 09:54:47;;;;;;;3.60;2.63;;;13.50;85.70;;;14.23;54.08;99796.63;4943812;28;114331;-85
2022/01/01 09:57:13;;;;;;;3.93;2.63;;;13.50;85.60;;;14.29;54.04;99800.94;4943212;28;124019;-86
2022/01/01 09:59:40;;;;;;;3.30;2.97;;;13.60;85.60;;;14.34;53.67;99801.66;4943005;28;123710;-89
2022/01/01 10:02:09;;;;;;;3.13;2.50;;;13.60;85.30;;;14.39;53.86;99799.91;4940088;28;115216;-88
2022/01/01 10:04:52;;;;;;;3.90;2.57;;;13.70;85.20;;;14.44;53.26;99795.03;4947548;28;114065;-89
2022/01/01 10:07:31;;;;;;;4.87;2.63;;;13.70;85.10;;;14.49;53.21;99785.75;4949276;28;124098;-88
2022/01/01 10:10:23;;;;;;;3.83;2.90;;;13.80;85.10;;;14.53;52.89;99782.09;4937894;28;123199;-88
2022/01/01 10:12:50;;;;;;;4.97;3.27;;;13.80;84.30;;;14.57;52.94;99787.81;4947724;28;114445;-88
2022/01/01 10:15:17;;;;;;;4.07;2.93;;;13.90;84.80;;;14.63;52.98;99786.56;4937163;28;113540;-87
2022/01/01 10:17:47;;;;;;;4.67;3.40;;;13.90;84.70;;;14.69;52.93;99773.34;4949225;28;123372;-89
2022/01/01 10:20:15;;;;;;;4.67;3.70;;;14.00;84.70;;;14.75;53.20;99772.09;4946436;28;123812;-88
2022/01/01 10:22:43;;;;;;;7.00;4.53;;;14.00;84.60;;;14.80;52.94;99772.78;4950536;28;114546;-88
2022/01/01 10:28:02;;;;;;;9.20;4.17;;;14.10;84.70;;;14.94;52.94;99772.72;4941845;28;124642;-88
2022/01/01 10:30:38;;;;;;;5.13;4.60;;;14.20;84.70;;;15.01;52.76;99773.06;4938826;28;123814;-87
2022/01/01 10:33:24;;;;;;;6.50;5.17;;;14.30;84.70;;;15.10;52.79;99758.38;4945734;28;114320;-87
2022/01/01 10:35:53;;;;;;;6.30;4.80;;;14.40;84.50;;;15.16;52.58;99751.56;4937847;28;113358;-87
2022/01/01 10:38:27;;;;;;;7.23;5.13;;;14.40;84.40;;;15.24;52.35;99767.47;4951535;28;124071;-88
2022/01/01 10:40:57;;;;;;;7.90;6.37;;;14.50;84.40;;;15.30;52.11;99757.84;4941519;28;123319;-88
2022/01/01 10:43:39;;;;;;;9.03;5.50;;;14.60;84.00;;;15.36;52.08;99756.53;4947169;28;114341;-87
2022/01/01 10:46:16;;;;;;;7.20;5.23;;;14.60;83.80;;;15.44;52.03;99752.16;4945775;28;114223;-88
2022/01/01 10:51:38;;;;;;;8.17;6.00;;;14.80;83.80;;;15.58;51.18;99749.25;4946742;28;123014;-86
2022/01/01 10:54:06;;;;;;;8.27;5.50;;;14.90;82.90;;;15.61;50.92;99749.44;4957864;28;114597;-88
2022/01/01 10:56:38;;;;;;;8.90;4.90;;;14.90;82.30;;;15.63;50.32;99740.75;4950377;28;115004;-88
2022/01/01 10:59:05;;;;;;;9.07;5.00;;;14.90;81.50;;;15.65;50.37;99741.25;4946729;28;124532;-89
2022/01/01 11:01:33;;;;;;;6.60;4.63;;;15.00;81.80;;;15.72;50.38;99738.06;4950288;28;123166;-87
2022/01/01 11:04:05;;;;;;;10.13;5.30;;;15.00;81.70;;;15.81;50.34;99733.31;4957122;28;114064;-89
2022/01/01 11:06:32;;;;;;;9.60;4.80;;;14.40;81.00;;;15.89;50.32;99722.16;4981552;28;113959;-89
2022/01/01 11:09:01;;;;;;;6.67;4.57;;;15.20;81.60;;;16.01;50.27;99717.91;4953479;28;123996;-87
2022/01/01 11:11:28;;;;;;;7.43;4.50;;;15.30;81.60;;;16.14;50.03;99725.31;4952951;28;123785;-89
2022/01/01 11:13:54;;;;;;;7.17;4.50;;;15.40;81.30;;;16.26;50.03;99717.13;4952317;28;114486;-89
2022/01/01 11:16:42;;;;;;;6.43;3.70;;;15.50;81.40;;;16.41;49.42;99714.97;4935390;28;112319;-88
2022/01/01 11:19:10;;;;;;;7.70;5.90;;;15.70;80.90;;;16.51;49.33;99709.88;4950814;28;124514;-87
2022/01/01 11:21:37;;;;;;;8.60;4.80;;;15.70;80.80;;;16.62;49.32;99710.38;4942878;28;123949;-87
2022/01/01 11:24:04;;;;;;;6.63;4.87;;;15.80;80.90;;;16.74;49.18;99704.13;4977167;28;114236;-88
2022/01/01 11:26:31;;;;;;;6.53;4.43;;;16.00;81.00;;;16.86;49.04;99703.47;4942346;28;113516;-87
2022/01/01 11:28:59;;;;;;;6.50;4.87;;;16.10;80.90;;;16.97;48.59;99699.16;4951428;28;123066;-87
2022/01/01 11:31:26;;;;;;;7.33;5.27;;;16.20;80.60;;;17.06;48.66;99694.38;4971071;28;122927;-87
2022/01/01 11:34:00;;;;;;;6.80;4.57;;;16.30;80.40;;;17.16;48.42;99684.78;4948003;28;114339;-87
2022/01/01 11:36:32;;;;;;;6.37;4.90;;;16.40;80.30;;;17.29;48.38;99688.53;4974283;28;113646;-87
2022/01/01 11:39:07;;;;;;;8.30;5.60;;;16.50;80.30;;;17.44;47.95;99686.00;4951119;28;123701;-87
2022/01/01 11:41:42;;;;;;;6.07;4.63;;;16.60;80.00;;;17.55;47.67;99680.84;4984316;28;123796;-88
2022/01/01 11:44:32;;;;;;;7.20;5.17;;;16.80;79.60;;;17.69;47.93;99674.19;4947292;28;114499;-87
2022/01/01 11:47:06;;;;;;;6.97;5.27;;;16.90;79.50;;;17.82;47.16;99682.34;4956546;28;114314;-88
2022/01/01 11:49:34;;;;;;;8.43;5.73;;;17.00;78.70;;;17.93;46.71;99676.34;4944720;28;124690;-88
2022/01/01 11:52:01;;;;;;;8.87;5.17;;;17.20;78.00;;;18.08;46.59;99676.56;4947580;28;123865;-87
2022/01/01 11:54:33;;;;;;;7.23;5.10;;;17.30;78.10;;;18.23;46.59;99665.91;4981178;28;114672;-87
2022/01/01 11:57:19;;;;;;;6.60;5.03;;;17.50;78.20;;;18.37;46.46;99672.03;4950887;28;113987;-87